GB-0286 weather

Longside Airfield
Peterhead, Scotland, United Kingdom

Public forecast

Using degrees Celsius for public forecast. Weather courtesy of forecast.io.

METAR (pilot weather report)

Closest report is Aberdeen Dyce Airport, 21.8 nm (40.3 km) SSW. Retrieved 2019/05/23 12:20 UTC (0 seconds ago):

EGPD 231220Z AUTO 27017KT 240V300 9999 BKN034 14/07 Q1009

TAF (pilot weather forecast)

Closest forecast is Aberdeen Dyce Airport, 21.8 nm (40.3 km) SSW. Retrieved 2019/05/23 12:00 UTC (14 minutes ago):

TAF EGPD 231101Z 2312/2412 26009KT 9999 FEW015 PROB40 TEMPO 2312/2320 28015G25KT PROB30 TEMPO 2322/2407 BKN014